sensor_id;sensor_type;location;lat;lon;timestamp;P1;durP1;ratioP1;P2;durP2;ratioP2
5981;SDS011;3018;48.730;9.336;2023-03-17T00:01:19;6.65;;;4.32;;
5981;SDS011;3018;48.730;9.336;2023-03-17T00:03:46;6.18;;;4.25;;
5981;SDS011;3018;48.730;9.336;2023-03-17T00:06:14;8.38;;;4.07;;
5981;SDS011;3018;48.730;9.336;2023-03-17T00:08:43;3.88;;;3.58;;
5981;SDS011;3018;48.730;9.336;2023-03-17T00:11:10;4.40;;;4.00;;
5981;SDS011;3018;48.730;9.336;2023-03-17T00:13:37;4.18;;;3.55;;
5981;SDS011;3018;48.730;9.336;2023-03-17T00:16:05;3.47;;;3.28;;
5981;SDS011;3018;48.730;9.336;2023-03-17T00:18:35;4.30;;;3.45;;
5981;SDS011;3018;48.730;9.336;2023-03-17T00:21:02;3.45;;;3.15;;
5981;SDS011;3018;48.730;9.336;2023-03-17T00:23:28;3.38;;;3.10;;
5981;SDS011;3018;48.730;9.336;2023-03-17T00:25:56;3.65;;;3.35;;
5981;SDS011;3018;48.730;9.336;2023-03-17T00:28:23;3.17;;;2.88;;
5981;SDS011;3018;48.730;9.336;2023-03-17T00:30:50;4.53;;;3.50;;
5981;SDS011;3018;48.730;9.336;2023-03-17T00:33:20;3.42;;;3.13;;
5981;SDS011;3018;48.730;9.336;2023-03-17T00:35:47;4.13;;;3.35;;
5981;SDS011;3018;48.730;9.336;2023-03-17T00:38:15;3.75;;;3.45;;
5981;SDS011;3018;48.730;9.336;2023-03-17T00:40:41;4.35;;;3.60;;
5981;SDS011;3018;48.730;9.336;2023-03-17T00:43:10;3.78;;;3.58;;
5981;SDS011;3018;48.730;9.336;2023-03-17T00:45:36;5.15;;;4.13;;
5981;SDS011;3018;48.730;9.336;2023-03-17T00:48:04;5.30;;;4.78;;
5981;SDS011;3018;48.730;9.336;2023-03-17T00:50:35;4.85;;;4.43;;
5981;SDS011;3018;48.730;9.336;2023-03-17T00:53:02;4.80;;;4.30;;
5981;SDS011;3018;48.730;9.336;2023-03-17T00:55:28;4.93;;;4.25;;
5981;SDS011;3018;48.730;9.336;2023-03-17T00:57:55;5.22;;;4.72;;
5981;SDS011;3018;48.730;9.336;2023-03-17T01:00:24;4.82;;;4.43;;
5981;SDS011;3018;48.730;9.336;2023-03-17T01:02:50;4.65;;;4.05;;
5981;SDS011;3018;48.730;9.336;2023-03-17T01:05:17;5.18;;;4.57;;
5981;SDS011;3018;48.730;9.336;2023-03-17T01:07:45;6.20;;;4.80;;
5981;SDS011;3018;48.730;9.336;2023-03-17T01:10:18;4.90;;;4.30;;
5981;SDS011;3018;48.730;9.336;2023-03-17T01:12:45;5.47;;;4.65;;
5981;SDS011;3018;48.730;9.336;2023-03-17T01:15:12;4.70;;;4.30;;
5981;SDS011;3018;48.730;9.336;2023-03-17T01:17:40;4.75;;;4.30;;
5981;SDS011;3018;48.730;9.336;2023-03-17T01:20:18;4.60;;;4.20;;
5981;SDS011;3018;48.730;9.336;2023-03-17T01:22:45;4.40;;;4.00;;
5981;SDS011;3018;48.730;9.336;2023-03-17T01:25:11;5.20;;;4.13;;
5981;SDS011;3018;48.730;9.336;2023-03-17T01:27:38;5.22;;;4.10;;
5981;SDS011;3018;48.730;9.336;2023-03-17T01:30:06;5.85;;;3.95;;
5981;SDS011;3018;48.730;9.336;2023-03-17T01:32:33;4.53;;;4.15;;
5981;SDS011;3018;48.730;9.336;2023-03-17T01:35:00;4.30;;;3.90;;
5981;SDS011;3018;48.730;9.336;2023-03-17T01:37:28;4.03;;;3.58;;
5981;SDS011;3018;48.730;9.336;2023-03-17T01:39:55;4.38;;;4.00;;
5981;SDS011;3018;48.730;9.336;2023-03-17T01:42:21;3.72;;;3.42;;
5981;SDS011;3018;48.730;9.336;2023-03-17T01:45:00;4.22;;;3.85;;
5981;SDS011;3018;48.730;9.336;2023-03-17T01:47:27;4.53;;;4.13;;
5981;SDS011;3018;48.730;9.336;2023-03-17T01:49:55;4.55;;;4.07;;
5981;SDS011;3018;48.730;9.336;2023-03-17T01:52:25;4.45;;;3.60;;
5981;SDS011;3018;48.730;9.336;2023-03-17T01:54:53;4.50;;;3.85;;
5981;SDS011;3018;48.730;9.336;2023-03-17T01:57:21;5.05;;;3.63;;
5981;SDS011;3018;48.730;9.336;2023-03-17T01:59:49;4.45;;;3.65;;
5981;SDS011;3018;48.730;9.336;2023-03-17T02:02:17;4.60;;;4.30;;
5981;SDS011;3018;48.730;9.336;2023-03-17T02:04:44;4.13;;;3.83;;
5981;SDS011;3018;48.730;9.336;2023-03-17T02:07:11;4.03;;;3.72;;
5981;SDS011;3018;48.730;9.336;2023-03-17T02:09:38;3.85;;;3.55;;
5981;SDS011;3018;48.730;9.336;2023-03-17T02:12:05;3.97;;;3.42;;
5981;SDS011;3018;48.730;9.336;2023-03-17T02:14:31;3.58;;;3.30;;
5981;SDS011;3018;48.730;9.336;2023-03-17T02:16:58;3.72;;;3.38;;
5981;SDS011;3018;48.730;9.336;2023-03-17T02:19:24;5.25;;;3.38;;
5981;SDS011;3018;48.730;9.336;2023-03-17T02:21:53;3.47;;;3.17;;
5981;SDS011;3018;48.730;9.336;2023-03-17T02:24:23;3.72;;;3.45;;
5981;SDS011;3018;48.730;9.336;2023-03-17T02:26:51;4.18;;;3.40;;
5981;SDS011;3018;48.730;9.336;2023-03-17T02:29:19;3.90;;;3.58;;
5981;SDS011;3018;48.730;9.336;2023-03-17T02:31:46;3.47;;;3.17;;
5981;SDS011;3018;48.730;9.336;2023-03-17T02:34:13;3.70;;;3.47;;
5981;SDS011;3018;48.730;9.336;2023-03-17T02:36:39;4.10;;;3.80;;
5981;SDS011;3018;48.730;9.336;2023-03-17T02:39:07;5.20;;;3.58;;
5981;SDS011;3018;48.730;9.336;2023-03-17T02:41:34;4.13;;;3.65;;
5981;SDS011;3018;48.730;9.336;2023-03-17T02:44:00;3.60;;;3.38;;
5981;SDS011;3018;48.730;9.336;2023-03-17T02:46:26;3.92;;;3.70;;
5981;SDS011;3018;48.730;9.336;2023-03-17T02:48:53;4.40;;;4.00;;
5981;SDS011;3018;48.730;9.336;2023-03-17T02:51:19;3.63;;;3.33;;
5981;SDS011;3018;48.730;9.336;2023-03-17T02:53:45;3.33;;;3.13;;
5981;SDS011;3018;48.730;9.336;2023-03-17T02:56:13;7.57;;;3.88;;
5981;SDS011;3018;48.730;9.336;2023-03-17T02:58:39;4.00;;;3.60;;
5981;SDS011;3018;48.730;9.336;2023-03-17T03:01:06;4.30;;;3.90;;
5981;SDS011;3018;48.730;9.336;2023-03-17T03:03:33;3.25;;;3.03;;
5981;SDS011;3018;48.730;9.336;2023-03-17T03:06:00;3.75;;;3.50;;
5981;SDS011;3018;48.730;9.336;2023-03-17T03:08:26;3.95;;;3.60;;
5981;SDS011;3018;48.730;9.336;2023-03-17T03:10:53;4.15;;;3.78;;
5981;SDS011;3018;48.730;9.336;2023-03-17T03:13:21;3.97;;;3.63;;
5981;SDS011;3018;48.730;9.336;2023-03-17T03:15:47;4.38;;;3.97;;
5981;SDS011;3018;48.730;9.336;2023-03-17T03:18:14;5.68;;;4.18;;
5981;SDS011;3018;48.730;9.336;2023-03-17T03:20:40;4.55;;;4.03;;
5981;SDS011;3018;48.730;9.336;2023-03-17T03:23:07;3.90;;;3.70;;
5981;SDS011;3018;48.730;9.336;2023-03-17T03:25:34;4.57;;;4.18;;
5981;SDS011;3018;48.730;9.336;2023-03-17T03:28:01;4.32;;;3.90;;
5981;SDS011;3018;48.730;9.336;2023-03-17T03:30:29;4.30;;;4.00;;
5981;SDS011;3018;48.730;9.336;2023-03-17T03:32:55;4.53;;;4.15;;
5981;SDS011;3018;48.730;9.336;2023-03-17T03:35:21;5.15;;;4.70;;
5981;SDS011;3018;48.730;9.336;2023-03-17T03:37:47;4.95;;;4.47;;
5981;SDS011;3018;48.730;9.336;2023-03-17T03:40:14;4.63;;;4.22;;
5981;SDS011;3018;48.730;9.336;2023-03-17T03:42:40;4.38;;;4.07;;
5981;SDS011;3018;48.730;9.336;2023-03-17T03:45:07;4.55;;;4.25;;
5981;SDS011;3018;48.730;9.336;2023-03-17T03:47:35;4.60;;;4.15;;
5981;SDS011;3018;48.730;9.336;2023-03-17T03:50:01;4.43;;;4.13;;
5981;SDS011;3018;48.730;9.336;2023-03-17T03:52:28;5.80;;;5.05;;
5981;SDS011;3018;48.730;9.336;2023-03-17T03:54:54;5.45;;;4.72;;
5981;SDS011;3018;48.730;9.336;2023-03-17T03:57:20;4.30;;;4.00;;
5981;SDS011;3018;48.730;9.336;2023-03-17T03:59:46;4.20;;;3.90;;
5981;SDS011;3018;48.730;9.336;2023-03-17T04:02:13;6.80;;;4.50;;
5981;SDS011;3018;48.730;9.336;2023-03-17T04:04:42;4.20;;;3.78;;
5981;SDS011;3018;48.730;9.336;2023-03-17T04:07:08;4.13;;;3.90;;
5981;SDS011;3018;48.730;9.336;2023-03-17T04:09:35;4.80;;;4.30;;
5981;SDS011;3018;48.730;9.336;2023-03-17T04:12:01;5.15;;;3.85;;
5981;SDS011;3018;48.730;9.336;2023-03-17T04:14:27;4.18;;;3.92;;
5981;SDS011;3018;48.730;9.336;2023-03-17T04:16:54;4.18;;;3.78;;
5981;SDS011;3018;48.730;9.336;2023-03-17T04:19:20;4.75;;;3.80;;
5981;SDS011;3018;48.730;9.336;2023-03-17T04:21:48;3.95;;;3.60;;
5981;SDS011;3018;48.730;9.336;2023-03-17T04:24:15;4.47;;;4.07;;
5981;SDS011;3018;48.730;9.336;2023-03-17T04:26:41;4.43;;;4.05;;
5981;SDS011;3018;48.730;9.336;2023-03-17T04:29:07;4.80;;;4.40;;
5981;SDS011;3018;48.730;9.336;2023-03-17T04:31:39;4.03;;;3.80;;
5981;SDS011;3018;48.730;9.336;2023-03-17T04:34:05;4.72;;;4.30;;
5981;SDS011;3018;48.730;9.336;2023-03-17T04:36:32;9.20;;;4.47;;
5981;SDS011;3018;48.730;9.336;2023-03-17T04:39:00;4.70;;;4.28;;
5981;SDS011;3018;48.730;9.336;2023-03-17T04:41:26;4.78;;;4.40;;
5981;SDS011;3018;48.730;9.336;2023-03-17T04:43:52;4.88;;;4.47;;
5981;SDS011;3018;48.730;9.336;2023-03-17T04:46:19;5.07;;;4.63;;
5981;SDS011;3018;48.730;9.336;2023-03-17T04:48:45;5.18;;;4.55;;
5981;SDS011;3018;48.730;9.336;2023-03-17T04:51:11;5.70;;;5.13;;
5981;SDS011;3018;48.730;9.336;2023-03-17T04:53:37;5.32;;;4.82;;
5981;SDS011;3018;48.730;9.336;2023-03-17T04:56:05;5.38;;;4.88;;
5981;SDS011;3018;48.730;9.336;2023-03-17T04:58:32;5.47;;;4.97;;
5981;SDS011;3018;48.730;9.336;2023-03-17T05:00:58;5.72;;;5.13;;
5981;SDS011;3018;48.730;9.336;2023-03-17T05:03:26;7.97;;;6.00;;
5981;SDS011;3018;48.730;9.336;2023-03-17T05:05:54;7.53;;;5.60;;
5981;SDS011;3018;48.730;9.336;2023-03-17T05:08:20;5.53;;;5.00;;
5981;SDS011;3018;48.730;9.336;2023-03-17T05:10:46;6.03;;;5.40;;
5981;SDS011;3018;48.730;9.336;2023-03-17T05:13:14;5.72;;;5.20;;
5981;SDS011;3018;48.730;9.336;2023-03-17T05:15:43;8.57;;;5.80;;
5981;SDS011;3018;48.730;9.336;2023-03-17T05:18:10;6.50;;;5.85;;
5981;SDS011;3018;48.730;9.336;2023-03-17T05:20:36;6.68;;;5.72;;
5981;SDS011;3018;48.730;9.336;2023-03-17T05:23:02;7.80;;;6.13;;
5981;SDS011;3018;48.730;9.336;2023-03-17T05:25:28;7.05;;;6.05;;
5981;SDS011;3018;48.730;9.336;2023-03-17T05:27:55;14.75;;;6.28;;
5981;SDS011;3018;48.730;9.336;2023-03-17T05:30:23;6.32;;;5.72;;
5981;SDS011;3018;48.730;9.336;2023-03-17T05:32:50;6.47;;;5.88;;
5981;SDS011;3018;48.730;9.336;2023-03-17T05:35:16;6.18;;;5.40;;
5981;SDS011;3018;48.730;9.336;2023-03-17T05:37:43;6.28;;;5.65;;
5981;SDS011;3018;48.730;9.336;2023-03-17T05:40:09;6.32;;;5.78;;
5981;SDS011;3018;48.730;9.336;2023-03-17T05:42:36;5.75;;;5.20;;
5981;SDS011;3018;48.730;9.336;2023-03-17T05:45:02;7.07;;;5.60;;
5981;SDS011;3018;48.730;9.336;2023-03-17T05:47:31;8.48;;;5.50;;
5981;SDS011;3018;48.730;9.336;2023-03-17T05:49:57;7.10;;;5.40;;
5981;SDS011;3018;48.730;9.336;2023-03-17T05:52:23;9.50;;;5.55;;
5981;SDS011;3018;48.730;9.336;2023-03-17T05:54:50;5.95;;;5.35;;
5981;SDS011;3018;48.730;9.336;2023-03-17T05:57:17;9.23;;;5.20;;
5981;SDS011;3018;48.730;9.336;2023-03-17T05:59:44;10.68;;;5.47;;
5981;SDS011;3018;48.730;9.336;2023-03-17T06:02:10;6.95;;;5.38;;
5981;SDS011;3018;48.730;9.336;2023-03-17T06:04:38;6.60;;;5.68;;
5981;SDS011;3018;48.730;9.336;2023-03-17T06:07:05;7.13;;;6.00;;
5981;SDS011;3018;48.730;9.336;2023-03-17T06:09:31;8.13;;;5.75;;
5981;SDS011;3018;48.730;9.336;2023-03-17T06:11:58;6.53;;;5.18;;
5981;SDS011;3018;48.730;9.336;2023-03-17T06:14:25;5.80;;;5.28;;
5981;SDS011;3018;48.730;9.336;2023-03-17T06:16:52;5.90;;;5.40;;
5981;SDS011;3018;48.730;9.336;2023-03-17T06:19:19;5.32;;;4.88;;
5981;SDS011;3018;48.730;9.336;2023-03-17T06:21:46;6.13;;;5.53;;
5981;SDS011;3018;48.730;9.336;2023-03-17T06:24:13;6.05;;;5.55;;
5981;SDS011;3018;48.730;9.336;2023-03-17T06:26:39;6.32;;;5.75;;
5981;SDS011;3018;48.730;9.336;2023-03-17T06:29:06;13.55;;;6.13;;
5981;SDS011;3018;48.730;9.336;2023-03-17T06:31:33;9.77;;;5.97;;
5981;SDS011;3018;48.730;9.336;2023-03-17T06:34:00;15.43;;;6.15;;
5981;SDS011;3018;48.730;9.336;2023-03-17T06:36:26;6.95;;;5.85;;
5981;SDS011;3018;48.730;9.336;2023-03-17T06:38:53;6.38;;;5.70;;
5981;SDS011;3018;48.730;9.336;2023-03-17T06:41:20;9.63;;;5.50;;
5981;SDS011;3018;48.730;9.336;2023-03-17T06:43:46;9.07;;;5.68;;
5981;SDS011;3018;48.730;9.336;2023-03-17T06:46:12;6.93;;;5.60;;
5981;SDS011;3018;48.730;9.336;2023-03-17T06:48:39;13.38;;;6.40;;
5981;SDS011;3018;48.730;9.336;2023-03-17T06:51:05;7.72;;;6.05;;
5981;SDS011;3018;48.730;9.336;2023-03-17T06:53:31;10.88;;;6.20;;
5981;SDS011;3018;48.730;9.336;2023-03-17T06:55:59;10.10;;;5.53;;
5981;SDS011;3018;48.730;9.336;2023-03-17T06:58:25;7.88;;;5.90;;
5981;SDS011;3018;48.730;9.336;2023-03-17T07:00:51;8.93;;;6.30;;
5981;SDS011;3018;48.730;9.336;2023-03-17T07:03:18;7.35;;;5.93;;
5981;SDS011;3018;48.730;9.336;2023-03-17T07:05:45;10.35;;;6.55;;
5981;SDS011;3018;48.730;9.336;2023-03-17T07:08:12;9.27;;;6.85;;
5981;SDS011;3018;48.730;9.336;2023-03-17T07:10:40;10.80;;;7.63;;
5981;SDS011;3018;48.730;9.336;2023-03-17T07:13:07;13.43;;;7.43;;
5981;SDS011;3018;48.730;9.336;2023-03-17T07:15:34;11.60;;;7.35;;
5981;SDS011;3018;48.730;9.336;2023-03-17T07:18:01;13.00;;;7.32;;
5981;SDS011;3018;48.730;9.336;2023-03-17T07:20:28;8.25;;;6.30;;
5981;SDS011;3018;48.730;9.336;2023-03-17T07:22:54;8.25;;;7.05;;
5981;SDS011;3018;48.730;9.336;2023-03-17T07:25:20;10.00;;;7.38;;
5981;SDS011;3018;48.730;9.336;2023-03-17T07:27:46;8.00;;;6.85;;
5981;SDS011;3018;48.730;9.336;2023-03-17T07:30:14;9.65;;;6.95;;
5981;SDS011;3018;48.730;9.336;2023-03-17T07:32:43;10.02;;;6.90;;
5981;SDS011;3018;48.730;9.336;2023-03-17T07:35:09;6.60;;;6.00;;
5981;SDS011;3018;48.730;9.336;2023-03-17T07:37:36;9.60;;;7.55;;
5981;SDS011;3018;48.730;9.336;2023-03-17T07:40:02;11.35;;;6.88;;
5981;SDS011;3018;48.730;9.336;2023-03-17T07:42:30;10.70;;;7.32;;
5981;SDS011;3018;48.730;9.336;2023-03-17T07:44:56;10.30;;;6.82;;
5981;SDS011;3018;48.730;9.336;2023-03-17T07:47:24;7.57;;;6.43;;
5981;SDS011;3018;48.730;9.336;2023-03-17T07:49:51;9.40;;;6.13;;
5981;SDS011;3018;48.730;9.336;2023-03-17T07:52:17;11.85;;;6.93;;
5981;SDS011;3018;48.730;9.336;2023-03-17T07:54:43;10.75;;;6.55;;
5981;SDS011;3018;48.730;9.336;2023-03-17T07:57:10;17.88;;;6.85;;
5981;SDS011;3018;48.730;9.336;2023-03-17T07:59:36;9.60;;;5.95;;
5981;SDS011;3018;48.730;9.336;2023-03-17T08:02:04;8.50;;;6.28;;
5981;SDS011;3018;48.730;9.336;2023-03-17T08:04:32;7.40;;;6.45;;
5981;SDS011;3018;48.730;9.336;2023-03-17T08:06:59;9.77;;;7.20;;
5981;SDS011;3018;48.730;9.336;2023-03-17T08:09:25;10.32;;;7.07;;
5981;SDS011;3018;48.730;9.336;2023-03-17T08:11:51;12.18;;;7.03;;
5981;SDS011;3018;48.730;9.336;2023-03-17T08:14:18;9.18;;;6.38;;
5981;SDS011;3018;48.730;9.336;2023-03-17T08:16:44;8.48;;;6.45;;
5981;SDS011;3018;48.730;9.336;2023-03-17T08:19:11;11.48;;;6.60;;
5981;SDS011;3018;48.730;9.336;2023-03-17T08:21:38;8.57;;;6.35;;
5981;SDS011;3018;48.730;9.336;2023-03-17T08:24:05;9.90;;;6.28;;
5981;SDS011;3018;48.730;9.336;2023-03-17T08:26:31;7.68;;;6.15;;
5981;SDS011;3018;48.730;9.336;2023-03-17T08:28:57;8.60;;;6.47;;
5981;SDS011;3018;48.730;9.336;2023-03-17T08:31:25;6.43;;;5.72;;
5981;SDS011;3018;48.730;9.336;2023-03-17T08:33:51;10.00;;;6.43;;
5981;SDS011;3018;48.730;9.336;2023-03-17T08:36:20;9.00;;;6.47;;
5981;SDS011;3018;48.730;9.336;2023-03-17T08:38:49;9.35;;;6.35;;
5981;SDS011;3018;48.730;9.336;2023-03-17T08:41:16;9.00;;;6.47;;
5981;SDS011;3018;48.730;9.336;2023-03-17T08:43:43;9.15;;;5.97;;
5981;SDS011;3018;48.730;9.336;2023-03-17T08:46:12;6.88;;;5.38;;
5981;SDS011;3018;48.730;9.336;2023-03-17T08:48:38;5.30;;;4.88;;
5981;SDS011;3018;48.730;9.336;2023-03-17T08:51:05;8.70;;;5.30;;
5981;SDS011;3018;48.730;9.336;2023-03-17T08:53:32;10.73;;;4.80;;
5981;SDS011;3018;48.730;9.336;2023-03-17T08:56:00;7.35;;;4.82;;
5981;SDS011;3018;48.730;9.336;2023-03-17T08:58:26;6.15;;;5.20;;
5981;SDS011;3018;48.730;9.336;2023-03-17T09:00:53;5.18;;;4.68;;
5981;SDS011;3018;48.730;9.336;2023-03-17T09:03:19;5.13;;;4.50;;
5981;SDS011;3018;48.730;9.336;2023-03-17T09:05:46;7.03;;;5.15;;
5981;SDS011;3018;48.730;9.336;2023-03-17T09:08:13;7.28;;;4.80;;
5981;SDS011;3018;48.730;9.336;2023-03-17T09:10:40;5.53;;;4.97;;
5981;SDS011;3018;48.730;9.336;2023-03-17T09:13:08;6.20;;;5.05;;
5981;SDS011;3018;48.730;9.336;2023-03-17T09:15:34;9.13;;;4.45;;
5981;SDS011;3018;48.730;9.336;2023-03-17T09:18:01;11.48;;;4.68;;
5981;SDS011;3018;48.730;9.336;2023-03-17T09:20:28;5.55;;;4.22;;
5981;SDS011;3018;48.730;9.336;2023-03-17T09:22:55;7.10;;;3.90;;
5981;SDS011;3018;48.730;9.336;2023-03-17T09:25:22;4.22;;;3.80;;
5981;SDS011;3018;48.730;9.336;2023-03-17T09:27:48;4.78;;;3.70;;
5981;SDS011;3018;48.730;9.336;2023-03-17T09:30:16;4.30;;;3.35;;
5981;SDS011;3018;48.730;9.336;2023-03-17T09:32:42;4.80;;;4.20;;
5981;SDS011;3018;48.730;9.336;2023-03-17T09:35:09;4.75;;;3.90;;
5981;SDS011;3018;48.730;9.336;2023-03-17T09:37:36;4.68;;;3.30;;
5981;SDS011;3018;48.730;9.336;2023-03-17T09:40:02;9.02;;;3.58;;
5981;SDS011;3018;48.730;9.336;2023-03-17T09:42:35;4.63;;;3.47;;
5981;SDS011;3018;48.730;9.336;2023-03-17T09:45:09;5.00;;;3.50;;
5981;SDS011;3018;48.730;9.336;2023-03-17T09:47:53;5.78;;;4.32;;
5981;SDS011;3018;48.730;9.336;2023-03-17T09:50:23;4.28;;;3.88;;
5981;SDS011;3018;48.730;9.336;2023-03-17T09:52:50;10.45;;;4.07;;
5981;SDS011;3018;48.730;9.336;2023-03-17T09:55:19;6.63;;;4.70;;
5981;SDS011;3018;48.730;9.336;2023-03-17T09:57:47;5.00;;;3.88;;
5981;SDS011;3018;48.730;9.336;2023-03-17T10:00:16;6.97;;;3.53;;
5981;SDS011;3018;48.730;9.336;2023-03-17T10:02:44;6.38;;;3.80;;
5981;SDS011;3018;48.730;9.336;2023-03-17T10:05:16;3.83;;;3.30;;
5981;SDS011;3018;48.730;9.336;2023-03-17T10:07:44;4.93;;;3.03;;
5981;SDS011;3018;48.730;9.336;2023-03-17T10:10:13;3.75;;;2.75;;
5981;SDS011;3018;48.730;9.336;2023-03-17T10:12:42;2.60;;;2.40;;
5981;SDS011;3018;48.730;9.336;2023-03-17T10:15:13;2.80;;;2.60;;
5981;SDS011;3018;48.730;9.336;2023-03-17T10:17:41;2.50;;;2.30;;
5981;SDS011;3018;48.730;9.336;2023-03-17T10:20:10;3.35;;;2.28;;
5981;SDS011;3018;48.730;9.336;2023-03-17T10:22:39;3.08;;;2.58;;
5981;SDS011;3018;48.730;9.336;2023-03-17T10:25:11;4.05;;;2.67;;
5981;SDS011;3018;48.730;9.336;2023-03-17T10:27:38;3.40;;;2.40;;
5981;SDS011;3018;48.730;9.336;2023-03-17T10:30:10;5.55;;;2.88;;
5981;SDS011;3018;48.730;9.336;2023-03-17T10:32:38;3.88;;;2.28;;
5981;SDS011;3018;48.730;9.336;2023-03-17T10:35:05;2.28;;;2.00;;
5981;SDS011;3018;48.730;9.336;2023-03-17T10:37:32;3.38;;;2.67;;
5981;SDS011;3018;48.730;9.336;2023-03-17T10:40:02;4.38;;;2.42;;
5981;SDS011;3018;48.730;9.336;2023-03-17T10:42:29;3.00;;;1.67;;
5981;SDS011;3018;48.730;9.336;2023-03-17T10:44:57;4.53;;;1.88;;
5981;SDS011;3018;48.730;9.336;2023-03-17T10:47:30;4.55;;;1.98;;
5981;SDS011;3018;48.730;9.336;2023-03-17T10:49:57;2.00;;;1.83;;
5981;SDS011;3018;48.730;9.336;2023-03-17T10:52:24;8.40;;;1.98;;
5981;SDS011;3018;48.730;9.336;2023-03-17T10:54:51;3.50;;;2.35;;
5981;SDS011;3018;48.730;9.336;2023-03-17T10:57:19;3.60;;;2.28;;
5981;SDS011;3018;48.730;9.336;2023-03-17T10:59:48;3.70;;;2.03;;
5981;SDS011;3018;48.730;9.336;2023-03-17T11:02:18;2.25;;;2.05;;
5981;SDS011;3018;48.730;9.336;2023-03-17T11:04:44;3.55;;;2.38;;
5981;SDS011;3018;48.730;9.336;2023-03-17T11:07:14;2.70;;;2.22;;
5981;SDS011;3018;48.730;9.336;2023-03-17T11:09:41;3.05;;;1.80;;
5981;SDS011;3018;48.730;9.336;2023-03-17T11:12:17;2.38;;;1.88;;
5981;SDS011;3018;48.730;9.336;2023-03-17T11:14:47;2.30;;;2.10;;
5981;SDS011;3018;48.730;9.336;2023-03-17T11:17:15;1.88;;;1.77;;
5981;SDS011;3018;48.730;9.336;2023-03-17T11:19:44;1.80;;;1.60;;
5981;SDS011;3018;48.730;9.336;2023-03-17T11:22:15;4.43;;;1.60;;
5981;SDS011;3018;48.730;9.336;2023-03-17T11:24:46;1.92;;;1.83;;
5981;SDS011;3018;48.730;9.336;2023-03-17T11:27:16;3.17;;;2.28;;
5981;SDS011;3018;48.730;9.336;2023-03-17T11:29:50;5.68;;;2.00;;
5981;SDS011;3018;48.730;9.336;2023-03-17T11:32:20;3.28;;;2.00;;
5981;SDS011;3018;48.730;9.336;2023-03-17T11:34:51;2.88;;;2.03;;
5981;SDS011;3018;48.730;9.336;2023-03-17T11:37:24;2.97;;;1.45;;
5981;SDS011;3018;48.730;9.336;2023-03-17T11:39:56;3.53;;;1.70;;
5981;SDS011;3018;48.730;9.336;2023-03-17T11:42:26;2.05;;;1.60;;
5981;SDS011;3018;48.730;9.336;2023-03-17T11:45:00;2.45;;;1.88;;
5981;SDS011;3018;48.730;9.336;2023-03-17T11:47:33;1.88;;;1.77;;
5981;SDS011;3018;48.730;9.336;2023-03-17T11:50:06;2.42;;;1.90;;
5981;SDS011;3018;48.730;9.336;2023-03-17T11:52:47;4.75;;;1.90;;
5981;SDS011;3018;48.730;9.336;2023-03-17T11:55:16;2.25;;;1.88;;
5981;SDS011;3018;48.730;9.336;2023-03-17T11:57:47;1.63;;;1.52;;
5981;SDS011;3018;48.730;9.336;2023-03-17T12:00:19;4.82;;;1.70;;
5981;SDS011;3018;48.730;9.336;2023-03-17T12:02:48;1.60;;;1.35;;
5981;SDS011;3018;48.730;9.336;2023-03-17T12:05:18;3.08;;;1.30;;
5981;SDS011;3018;48.730;9.336;2023-03-17T12:07:48;2.97;;;1.73;;
5981;SDS011;3018;48.730;9.336;2023-03-17T12:10:17;1.70;;;1.60;;
5981;SDS011;3018;48.730;9.336;2023-03-17T12:12:48;3.22;;;1.52;;
5981;SDS011;3018;48.730;9.336;2023-03-17T12:15:17;3.35;;;1.50;;
5981;SDS011;3018;48.730;9.336;2023-03-17T12:17:48;5.97;;;1.58;;
5981;SDS011;3018;48.730;9.336;2023-03-17T12:20:16;2.22;;;1.42;;
5981;SDS011;3018;48.730;9.336;2023-03-17T12:22:45;6.05;;;1.70;;
5981;SDS011;3018;48.730;9.336;2023-03-17T12:25:15;1.27;;;1.27;;
5981;SDS011;3018;48.730;9.336;2023-03-17T12:27:45;2.42;;;1.52;;
5981;SDS011;3018;48.730;9.336;2023-03-17T12:30:15;2.13;;;1.70;;
5981;SDS011;3018;48.730;9.336;2023-03-17T12:32:43;1.58;;;1.45;;
5981;SDS011;3018;48.730;9.336;2023-03-17T12:35:21;1.70;;;1.60;;
5981;SDS011;3018;48.730;9.336;2023-03-17T12:37:49;4.30;;;1.60;;
5981;SDS011;3018;48.730;9.336;2023-03-17T12:40:16;1.40;;;1.35;;
5981;SDS011;3018;48.730;9.336;2023-03-17T12:42:45;1.70;;;1.27;;
5981;SDS011;3018;48.730;9.336;2023-03-17T12:48:01;3.40;;;1.23;;
5981;SDS011;3018;48.730;9.336;2023-03-17T12:50:37;2.30;;;1.30;;
5981;SDS011;3018;48.730;9.336;2023-03-17T12:53:17;2.50;;;1.20;;
5981;SDS011;3018;48.730;9.336;2023-03-17T12:55:46;1.10;;;1.02;;
5981;SDS011;3018;48.730;9.336;2023-03-17T12:58:17;1.55;;;1.40;;
5981;SDS011;3018;48.730;9.336;2023-03-17T13:00:47;0.60;;;0.60;;
5981;SDS011;3018;48.730;9.336;2023-03-17T13:03:17;0.88;;;0.80;;
5981;SDS011;3018;48.730;9.336;2023-03-17T13:05:49;2.20;;;1.00;;
5981;SDS011;3018;48.730;9.336;2023-03-17T13:08:16;1.67;;;0.90;;
5981;SDS011;3018;48.730;9.336;2023-03-17T13:10:46;2.70;;;0.82;;
5981;SDS011;3018;48.730;9.336;2023-03-17T13:13:32;0.80;;;0.80;;
5981;SDS011;3018;48.730;9.336;2023-03-17T13:16:01;1.25;;;1.15;;
5981;SDS011;3018;48.730;9.336;2023-03-17T13:18:43;0.77;;;0.77;;
5981;SDS011;3018;48.730;9.336;2023-03-17T13:21:12;0.80;;;0.80;;
5981;SDS011;3018;48.730;9.336;2023-03-17T13:23:41;1.35;;;1.00;;
5981;SDS011;3018;48.730;9.336;2023-03-17T13:26:10;1.25;;;0.85;;
5981;SDS011;3018;48.730;9.336;2023-03-17T13:28:40;0.90;;;0.90;;
5981;SDS011;3018;48.730;9.336;2023-03-17T13:31:08;2.33;;;0.90;;
5981;SDS011;3018;48.730;9.336;2023-03-17T13:33:39;0.73;;;0.73;;
5981;SDS011;3018;48.730;9.336;2023-03-17T13:36:26;1.50;;;1.40;;
5981;SDS011;3018;48.730;9.336;2023-03-17T13:39:08;1.17;;;1.17;;
5981;SDS011;3018;48.730;9.336;2023-03-17T13:41:45;2.45;;;1.27;;
5981;SDS011;3018;48.730;9.336;2023-03-17T13:44:20;2.50;;;1.05;;
5981;SDS011;3018;48.730;9.336;2023-03-17T13:46:49;0.90;;;0.90;;
5981;SDS011;3018;48.730;9.336;2023-03-17T13:49:22;2.35;;;0.60;;
5981;SDS011;3018;48.730;9.336;2023-03-17T13:51:52;0.70;;;0.70;;
5981;SDS011;3018;48.730;9.336;2023-03-17T13:54:20;1.25;;;0.70;;
5981;SDS011;3018;48.730;9.336;2023-03-17T13:56:54;1.95;;;0.88;;
5981;SDS011;3018;48.730;9.336;2023-03-17T13:59:21;1.42;;;0.93;;
5981;SDS011;3018;48.730;9.336;2023-03-17T14:01:49;0.73;;;0.70;;
5981;SDS011;3018;48.730;9.336;2023-03-17T14:04:18;1.15;;;0.90;;
5981;SDS011;3018;48.730;9.336;2023-03-17T14:06:45;2.78;;;1.08;;
5981;SDS011;3018;48.730;9.336;2023-03-17T14:09:19;1.05;;;0.95;;
5981;SDS011;3018;48.730;9.336;2023-03-17T14:11:46;1.42;;;1.10;;
5981;SDS011;3018;48.730;9.336;2023-03-17T14:14:15;0.70;;;0.70;;
5981;SDS011;3018;48.730;9.336;2023-03-17T14:16:43;0.70;;;0.70;;
5981;SDS011;3018;48.730;9.336;2023-03-17T14:19:14;1.73;;;0.80;;
5981;SDS011;3018;48.730;9.336;2023-03-17T14:21:42;3.97;;;0.80;;
5981;SDS011;3018;48.730;9.336;2023-03-17T14:24:16;1.13;;;0.90;;
5981;SDS011;3018;48.730;9.336;2023-03-17T14:26:44;1.60;;;0.65;;
5981;SDS011;3018;48.730;9.336;2023-03-17T14:29:13;2.05;;;0.70;;
5981;SDS011;3018;48.730;9.336;2023-03-17T14:31:39;0.68;;;0.68;;
5981;SDS011;3018;48.730;9.336;2023-03-17T14:34:10;2.83;;;0.80;;
5981;SDS011;3018;48.730;9.336;2023-03-17T14:36:37;2.25;;;1.00;;
5981;SDS011;3018;48.730;9.336;2023-03-17T14:39:03;8.63;;;0.90;;
5981;SDS011;3018;48.730;9.336;2023-03-17T14:41:31;4.57;;;0.90;;
5981;SDS011;3018;48.730;9.336;2023-03-17T14:43:59;3.90;;;0.88;;
5981;SDS011;3018;48.730;9.336;2023-03-17T14:46:29;1.58;;;0.80;;
5981;SDS011;3018;48.730;9.336;2023-03-17T14:48:57;1.33;;;0.95;;
5981;SDS011;3018;48.730;9.336;2023-03-17T14:51:24;3.30;;;0.82;;
5981;SDS011;3018;48.730;9.336;2023-03-17T14:53:51;2.67;;;0.70;;
5981;SDS011;3018;48.730;9.336;2023-03-17T14:56:20;1.65;;;0.70;;
5981;SDS011;3018;48.730;9.336;2023-03-17T14:58:47;2.42;;;0.70;;
5981;SDS011;3018;48.730;9.336;2023-03-17T15:01:17;2.78;;;0.80;;
5981;SDS011;3018;48.730;9.336;2023-03-17T15:03:52;0.85;;;0.85;;
5981;SDS011;3018;48.730;9.336;2023-03-17T15:06:21;0.77;;;0.77;;
5981;SDS011;3018;48.730;9.336;2023-03-17T15:08:48;1.05;;;0.88;;
5981;SDS011;3018;48.730;9.336;2023-03-17T15:11:15;1.60;;;0.90;;
5981;SDS011;3018;48.730;9.336;2023-03-17T15:13:42;1.17;;;0.85;;
5981;SDS011;3018;48.730;9.336;2023-03-17T15:16:14;1.35;;;0.82;;
5981;SDS011;3018;48.730;9.336;2023-03-17T15:18:42;0.90;;;0.90;;
5981;SDS011;3018;48.730;9.336;2023-03-17T15:21:20;5.32;;;1.58;;
5981;SDS011;3018;48.730;9.336;2023-03-17T15:23:46;1.38;;;1.38;;